sensor_id;sensor_type;location;lat;lon;timestamp;temperature;humidity
38726;DHT22;24474;48.906;8.808;2023-07-20T00:02:24;20.10;88.20
38726;DHT22;24474;48.906;8.808;2023-07-20T00:04:49;20.00;88.40
38726;DHT22;24474;48.906;8.808;2023-07-20T00:07:15;20.00;88.50
38726;DHT22;24474;48.906;8.808;2023-07-20T00:09:40;20.00;88.90
38726;DHT22;24474;48.906;8.808;2023-07-20T00:12:06;20.00;89.10
38726;DHT22;24474;48.906;8.808;2023-07-20T00:14:32;19.90;89.00
38726;DHT22;24474;48.906;8.808;2023-07-20T00:16:58;19.90;89.40
38726;DHT22;24474;48.906;8.808;2023-07-20T00:19:25;19.90;89.60
38726;DHT22;24474;48.906;8.808;2023-07-20T00:21:52;19.80;89.80
38726;DHT22;24474;48.906;8.808;2023-07-20T00:24:17;19.80;89.90
38726;DHT22;24474;48.906;8.808;2023-07-20T00:26:43;19.80;90.00
38726;DHT22;24474;48.906;8.808;2023-07-20T00:29:09;19.70;90.00
38726;DHT22;24474;48.906;8.808;2023-07-20T00:31:35;19.70;90.20
38726;DHT22;24474;48.906;8.808;2023-07-20T00:34:05;19.70;90.30
38726;DHT22;24474;48.906;8.808;2023-07-20T00:36:31;19.60;90.50
38726;DHT22;24474;48.906;8.808;2023-07-20T00:38:57;19.60;90.60
38726;DHT22;24474;48.906;8.808;2023-07-20T00:41:22;19.60;90.50
38726;DHT22;24474;48.906;8.808;2023-07-20T00:43:55;19.50;90.80
38726;DHT22;24474;48.906;8.808;2023-07-20T00:46:23;19.50;90.90
38726;DHT22;24474;48.906;8.808;2023-07-20T00:48:49;19.50;90.90
38726;DHT22;24474;48.906;8.808;2023-07-20T00:51:15;19.40;90.90
38726;DHT22;24474;48.906;8.808;2023-07-20T00:53:41;19.40;91.00
38726;DHT22;24474;48.906;8.808;2023-07-20T00:56:07;19.30;91.40
38726;DHT22;24474;48.906;8.808;2023-07-20T00:58:34;19.30;91.30
38726;DHT22;24474;48.906;8.808;2023-07-20T01:01:00;19.30;91.40
38726;DHT22;24474;48.906;8.808;2023-07-20T01:03:26;19.30;91.30
38726;DHT22;24474;48.906;8.808;2023-07-20T01:06:02;19.20;91.40
38726;DHT22;24474;48.906;8.808;2023-07-20T01:08:40;19.10;91.60
38726;DHT22;24474;48.906;8.808;2023-07-20T01:11:31;19.10;91.70
38726;DHT22;24474;48.906;8.808;2023-07-20T01:14:01;19.00;91.80
38726;DHT22;24474;48.906;8.808;2023-07-20T01:16:27;19.00;91.90
38726;DHT22;24474;48.906;8.808;2023-07-20T01:18:53;18.90;92.00
38726;DHT22;24474;48.906;8.808;2023-07-20T01:21:33;18.80;92.00
38726;DHT22;24474;48.906;8.808;2023-07-20T01:27:23;18.80;92.30
38726;DHT22;24474;48.906;8.808;2023-07-20T01:32:36;18.70;92.50
38726;DHT22;24474;48.906;8.808;2023-07-20T01:35:05;18.70;92.70
38726;DHT22;24474;48.906;8.808;2023-07-20T01:37:32;18.70;92.70
38726;DHT22;24474;48.906;8.808;2023-07-20T01:40:00;18.60;92.70
38726;DHT22;24474;48.906;8.808;2023-07-20T01:42:26;18.60;92.80
38726;DHT22;24474;48.906;8.808;2023-07-20T01:44:52;18.60;92.90
38726;DHT22;24474;48.906;8.808;2023-07-20T01:47:20;18.50;93.10
38726;DHT22;24474;48.906;8.808;2023-07-20T01:49:45;18.50;93.30
38726;DHT22;24474;48.906;8.808;2023-07-20T01:52:13;18.50;93.30
38726;DHT22;24474;48.906;8.808;2023-07-20T01:54:40;18.50;93.50
38726;DHT22;24474;48.906;8.808;2023-07-20T01:57:05;18.40;93.40
38726;DHT22;24474;48.906;8.808;2023-07-20T01:59:33;18.40;93.50
38726;DHT22;24474;48.906;8.808;2023-07-20T02:01:58;18.30;93.70
38726;DHT22;24474;48.906;8.808;2023-07-20T02:04:24;18.30;93.70
38726;DHT22;24474;48.906;8.808;2023-07-20T02:06:51;18.30;93.90
38726;DHT22;24474;48.906;8.808;2023-07-20T02:09:19;18.20;93.90
38726;DHT22;24474;48.906;8.808;2023-07-20T02:11:45;18.20;93.90
38726;DHT22;24474;48.906;8.808;2023-07-20T02:14:12;18.20;94.00
38726;DHT22;24474;48.906;8.808;2023-07-20T02:16:39;18.20;94.10
38726;DHT22;24474;48.906;8.808;2023-07-20T02:19:06;18.10;94.20
38726;DHT22;24474;48.906;8.808;2023-07-20T02:21:32;18.10;94.30
38726;DHT22;24474;48.906;8.808;2023-07-20T02:23:58;18.00;94.20
38726;DHT22;24474;48.906;8.808;2023-07-20T02:26:25;18.00;94.40
38726;DHT22;24474;48.906;8.808;2023-07-20T02:28:52;18.00;94.50
38726;DHT22;24474;48.906;8.808;2023-07-20T02:31:17;17.90;94.70
38726;DHT22;24474;48.906;8.808;2023-07-20T02:33:45;17.90;94.60
38726;DHT22;24474;48.906;8.808;2023-07-20T02:36:11;17.80;94.80
38726;DHT22;24474;48.906;8.808;2023-07-20T02:38:37;17.80;94.80
38726;DHT22;24474;48.906;8.808;2023-07-20T02:41:03;17.80;94.90
38726;DHT22;24474;48.906;8.808;2023-07-20T02:43:30;17.80;95.20
38726;DHT22;24474;48.906;8.808;2023-07-20T02:45:55;17.70;95.00
38726;DHT22;24474;48.906;8.808;2023-07-20T02:48:22;17.70;95.10
38726;DHT22;24474;48.906;8.808;2023-07-20T02:50:48;17.60;95.20
38726;DHT22;24474;48.906;8.808;2023-07-20T02:53:14;17.60;95.30
38726;DHT22;24474;48.906;8.808;2023-07-20T02:55:41;17.60;95.40
38726;DHT22;24474;48.906;8.808;2023-07-20T02:58:07;17.50;95.50
38726;DHT22;24474;48.906;8.808;2023-07-20T03:00:33;17.50;95.40
38726;DHT22;24474;48.906;8.808;2023-07-20T03:02:59;17.50;95.40
38726;DHT22;24474;48.906;8.808;2023-07-20T03:05:25;17.40;95.50
38726;DHT22;24474;48.906;8.808;2023-07-20T03:07:51;17.40;95.60
38726;DHT22;24474;48.906;8.808;2023-07-20T03:10:18;17.40;95.70
38726;DHT22;24474;48.906;8.808;2023-07-20T03:12:44;17.40;95.70
38726;DHT22;24474;48.906;8.808;2023-07-20T03:15:10;17.30;95.70
38726;DHT22;24474;48.906;8.808;2023-07-20T03:17:36;17.30;95.80
38726;DHT22;24474;48.906;8.808;2023-07-20T03:20:03;17.30;95.90
38726;DHT22;24474;48.906;8.808;2023-07-20T03:22:29;17.20;96.00
38726;DHT22;24474;48.906;8.808;2023-07-20T03:24:55;17.20;96.20
38726;DHT22;24474;48.906;8.808;2023-07-20T03:27:22;17.10;96.20
38726;DHT22;24474;48.906;8.808;2023-07-20T03:29:48;17.20;96.60
38726;DHT22;24474;48.906;8.808;2023-07-20T03:32:14;17.10;96.30
38726;DHT22;24474;48.906;8.808;2023-07-20T03:34:41;17.10;96.60
38726;DHT22;24474;48.906;8.808;2023-07-20T03:37:08;17.10;96.40
38726;DHT22;24474;48.906;8.808;2023-07-20T03:39:34;17.00;96.30
38726;DHT22;24474;48.906;8.808;2023-07-20T03:42:00;17.00;96.40
38726;DHT22;24474;48.906;8.808;2023-07-20T03:44:27;17.00;96.60
38726;DHT22;24474;48.906;8.808;2023-07-20T03:46:54;17.00;96.60
38726;DHT22;24474;48.906;8.808;2023-07-20T03:49:23;16.90;96.60
38726;DHT22;24474;48.906;8.808;2023-07-20T03:51:49;16.90;96.70
38726;DHT22;24474;48.906;8.808;2023-07-20T03:54:20;16.90;96.70
38726;DHT22;24474;48.906;8.808;2023-07-20T03:56:45;16.90;96.90
38726;DHT22;24474;48.906;8.808;2023-07-20T03:59:12;16.80;97.20
38726;DHT22;24474;48.906;8.808;2023-07-20T04:01:37;16.90;97.30
38726;DHT22;24474;48.906;8.808;2023-07-20T04:04:07;16.80;97.30
38726;DHT22;24474;48.906;8.808;2023-07-20T04:06:33;16.90;97.40
38726;DHT22;24474;48.906;8.808;2023-07-20T04:09:00;16.80;97.50
38726;DHT22;24474;48.906;8.808;2023-07-20T04:11:27;16.90;97.70
38726;DHT22;24474;48.906;8.808;2023-07-20T04:13:53;16.90;98.20
38726;DHT22;24474;48.906;8.808;2023-07-20T04:16:18;16.90;97.90
38726;DHT22;24474;48.906;8.808;2023-07-20T04:18:46;16.80;98.10
38726;DHT22;24474;48.906;8.808;2023-07-20T04:21:12;16.90;98.30
38726;DHT22;24474;48.906;8.808;2023-07-20T04:23:39;16.80;98.20
38726;DHT22;24474;48.906;8.808;2023-07-20T04:26:05;16.80;98.30
38726;DHT22;24474;48.906;8.808;2023-07-20T04:28:32;16.80;98.40
38726;DHT22;24474;48.906;8.808;2023-07-20T04:31:10;16.80;98.50
38726;DHT22;24474;48.906;8.808;2023-07-20T04:33:40;16.90;98.50
38726;DHT22;24474;48.906;8.808;2023-07-20T04:36:07;16.90;98.60
38726;DHT22;24474;48.906;8.808;2023-07-20T04:38:36;16.90;98.70
38726;DHT22;24474;48.906;8.808;2023-07-20T04:41:03;17.00;98.80
38726;DHT22;24474;48.906;8.808;2023-07-20T04:43:30;17.00;98.80
38726;DHT22;24474;48.906;8.808;2023-07-20T04:45:57;17.00;98.60
38726;DHT22;24474;48.906;8.808;2023-07-20T04:48:24;17.00;98.40
38726;DHT22;24474;48.906;8.808;2023-07-20T04:50:50;17.10;98.50
38726;DHT22;24474;48.906;8.808;2023-07-20T04:53:18;17.10;98.40
38726;DHT22;24474;48.906;8.808;2023-07-20T04:55:52;17.20;98.50
38726;DHT22;24474;48.906;8.808;2023-07-20T04:58:21;17.20;98.20
38726;DHT22;24474;48.906;8.808;2023-07-20T05:00:49;17.30;98.40
38726;DHT22;24474;48.906;8.808;2023-07-20T05:03:17;17.30;98.40
38726;DHT22;24474;48.906;8.808;2023-07-20T05:05:42;17.30;98.60
38726;DHT22;24474;48.906;8.808;2023-07-20T05:08:09;17.30;98.50
38726;DHT22;24474;48.906;8.808;2023-07-20T05:10:35;17.30;98.20
38726;DHT22;24474;48.906;8.808;2023-07-20T05:13:02;17.40;97.80
38726;DHT22;24474;48.906;8.808;2023-07-20T05:15:29;17.40;97.70
38726;DHT22;24474;48.906;8.808;2023-07-20T05:17:59;17.50;98.10
38726;DHT22;24474;48.906;8.808;2023-07-20T05:20:26;17.50;98.10
38726;DHT22;24474;48.906;8.808;2023-07-20T05:22:53;17.60;97.90
38726;DHT22;24474;48.906;8.808;2023-07-20T05:25:20;17.60;97.70
38726;DHT22;24474;48.906;8.808;2023-07-20T05:27:48;17.60;97.90
38726;DHT22;24474;48.906;8.808;2023-07-20T05:30:15;17.60;97.80
38726;DHT22;24474;48.906;8.808;2023-07-20T05:32:44;17.70;98.00
38726;DHT22;24474;48.906;8.808;2023-07-20T05:35:15;17.70;98.00
38726;DHT22;24474;48.906;8.808;2023-07-20T05:37:42;17.80;98.20
38726;DHT22;24474;48.906;8.808;2023-07-20T05:40:08;17.80;98.20
38726;DHT22;24474;48.906;8.808;2023-07-20T05:42:36;17.90;98.10
38726;DHT22;24474;48.906;8.808;2023-07-20T05:45:01;18.00;97.90
38726;DHT22;24474;48.906;8.808;2023-07-20T05:47:27;18.10;97.60
38726;DHT22;24474;48.906;8.808;2023-07-20T05:49:52;18.30;97.50
38726;DHT22;24474;48.906;8.808;2023-07-20T05:52:18;18.50;97.40
38726;DHT22;24474;48.906;8.808;2023-07-20T05:54:43;18.50;97.50
38726;DHT22;24474;48.906;8.808;2023-07-20T05:57:10;18.60;97.60
38726;DHT22;24474;48.906;8.808;2023-07-20T05:59:36;18.90;97.50
38726;DHT22;24474;48.906;8.808;2023-07-20T06:02:02;19.10;96.60
38726;DHT22;24474;48.906;8.808;2023-07-20T06:04:27;19.20;96.60
38726;DHT22;24474;48.906;8.808;2023-07-20T06:06:53;19.40;96.40
38726;DHT22;24474;48.906;8.808;2023-07-20T06:09:18;19.50;96.20
38726;DHT22;24474;48.906;8.808;2023-07-20T06:11:44;19.60;95.80
38726;DHT22;24474;48.906;8.808;2023-07-20T06:14:10;19.60;95.90
38726;DHT22;24474;48.906;8.808;2023-07-20T06:16:36;19.60;95.90
38726;DHT22;24474;48.906;8.808;2023-07-20T06:19:01;19.60;95.80
38726;DHT22;24474;48.906;8.808;2023-07-20T06:21:27;19.60;95.80
38726;DHT22;24474;48.906;8.808;2023-07-20T06:23:53;19.50;95.80
38726;DHT22;24474;48.906;8.808;2023-07-20T06:26:18;19.30;95.60
38726;DHT22;24474;48.906;8.808;2023-07-20T06:28:45;19.30;95.70
38726;DHT22;24474;48.906;8.808;2023-07-20T06:31:10;19.30;96.30
38726;DHT22;24474;48.906;8.808;2023-07-20T06:33:36;19.30;95.60
38726;DHT22;24474;48.906;8.808;2023-07-20T06:36:03;19.30;95.60
38726;DHT22;24474;48.906;8.808;2023-07-20T06:38:28;19.30;95.30
38726;DHT22;24474;48.906;8.808;2023-07-20T06:40:58;19.30;95.70
38726;DHT22;24474;48.906;8.808;2023-07-20T06:43:23;19.30;95.50
38726;DHT22;24474;48.906;8.808;2023-07-20T06:45:52;19.30;95.50
38726;DHT22;24474;48.906;8.808;2023-07-20T06:48:21;19.40;95.50
38726;DHT22;24474;48.906;8.808;2023-07-20T06:50:47;19.40;95.80
38726;DHT22;24474;48.906;8.808;2023-07-20T06:53:13;19.40;95.60
38726;DHT22;24474;48.906;8.808;2023-07-20T06:55:38;19.40;95.40
38726;DHT22;24474;48.906;8.808;2023-07-20T06:58:05;19.50;95.80
38726;DHT22;24474;48.906;8.808;2023-07-20T07:00:30;19.60;95.60
38726;DHT22;24474;48.906;8.808;2023-07-20T07:02:56;19.60;95.20
38726;DHT22;24474;48.906;8.808;2023-07-20T07:05:21;19.70;95.30
38726;DHT22;24474;48.906;8.808;2023-07-20T07:07:47;19.70;95.00
38726;DHT22;24474;48.906;8.808;2023-07-20T07:10:13;19.80;95.20
38726;DHT22;24474;48.906;8.808;2023-07-20T07:12:39;19.90;95.10
38726;DHT22;24474;48.906;8.808;2023-07-20T07:15:05;19.90;95.00
38726;DHT22;24474;48.906;8.808;2023-07-20T07:17:33;20.00;95.40
38726;DHT22;24474;48.906;8.808;2023-07-20T07:20:00;20.10;95.20
38726;DHT22;24474;48.906;8.808;2023-07-20T07:22:26;20.20;95.60
38726;DHT22;24474;48.906;8.808;2023-07-20T07:24:51;20.20;94.90
38726;DHT22;24474;48.906;8.808;2023-07-20T07:27:17;20.20;94.80
38726;DHT22;24474;48.906;8.808;2023-07-20T07:29:43;20.20;95.10
38726;DHT22;24474;48.906;8.808;2023-07-20T07:32:12;20.20;95.10
38726;DHT22;24474;48.906;8.808;2023-07-20T07:34:38;20.10;95.00
38726;DHT22;24474;48.906;8.808;2023-07-20T07:37:07;20.10;95.30
38726;DHT22;24474;48.906;8.808;2023-07-20T07:39:32;20.10;95.20
38726;DHT22;24474;48.906;8.808;2023-07-20T07:41:58;20.10;95.50
38726;DHT22;24474;48.906;8.808;2023-07-20T07:44:24;20.20;95.80
38726;DHT22;24474;48.906;8.808;2023-07-20T07:46:50;20.30;95.10
38726;DHT22;24474;48.906;8.808;2023-07-20T07:49:16;20.40;95.30
38726;DHT22;24474;48.906;8.808;2023-07-20T07:51:42;20.50;95.30
38726;DHT22;24474;48.906;8.808;2023-07-20T07:54:07;20.60;95.30
38726;DHT22;24474;48.906;8.808;2023-07-20T07:56:33;20.70;94.70
38726;DHT22;24474;48.906;8.808;2023-07-20T07:58:59;20.80;95.00
38726;DHT22;24474;48.906;8.808;2023-07-20T08:01:24;20.70;94.10
38726;DHT22;24474;48.906;8.808;2023-07-20T08:03:51;20.80;94.80
38726;DHT22;24474;48.906;8.808;2023-07-20T08:06:17;20.80;94.70
38726;DHT22;24474;48.906;8.808;2023-07-20T08:08:42;20.80;94.60
38726;DHT22;24474;48.906;8.808;2023-07-20T08:11:08;20.90;94.80
38726;DHT22;24474;48.906;8.808;2023-07-20T08:13:34;21.00;93.90
38726;DHT22;24474;48.906;8.808;2023-07-20T08:16:01;20.90;94.00
38726;DHT22;24474;48.906;8.808;2023-07-20T08:18:28;20.90;94.00
38726;DHT22;24474;48.906;8.808;2023-07-20T08:20:53;20.90;94.20
38726;DHT22;24474;48.906;8.808;2023-07-20T08:23:19;20.90;93.40
38726;DHT22;24474;48.906;8.808;2023-07-20T08:25:45;20.80;93.60
38726;DHT22;24474;48.906;8.808;2023-07-20T08:28:13;20.70;94.00
38726;DHT22;24474;48.906;8.808;2023-07-20T08:30:46;20.70;94.10
38726;DHT22;24474;48.906;8.808;2023-07-20T08:33:16;20.80;93.80
38726;DHT22;24474;48.906;8.808;2023-07-20T08:35:44;20.90;93.90
38726;DHT22;24474;48.906;8.808;2023-07-20T08:38:10;20.90;93.10
38726;DHT22;24474;48.906;8.808;2023-07-20T08:40:40;21.00;93.30
38726;DHT22;24474;48.906;8.808;2023-07-20T08:43:07;21.10;93.30
38726;DHT22;24474;48.906;8.808;2023-07-20T08:45:34;21.10;92.50
38726;DHT22;24474;48.906;8.808;2023-07-20T08:48:02;21.10;93.40
38726;DHT22;24474;48.906;8.808;2023-07-20T08:50:30;21.20;93.00
38726;DHT22;24474;48.906;8.808;2023-07-20T08:52:57;21.30;92.40
38726;DHT22;24474;48.906;8.808;2023-07-20T08:55:25;21.30;92.50
38726;DHT22;24474;48.906;8.808;2023-07-20T08:57:54;21.40;92.80
38726;DHT22;24474;48.906;8.808;2023-07-20T09:00:20;21.40;92.30
38726;DHT22;24474;48.906;8.808;2023-07-20T09:02:48;21.40;91.70
38726;DHT22;24474;48.906;8.808;2023-07-20T09:05:14;21.20;91.90
38726;DHT22;24474;48.906;8.808;2023-07-20T09:07:40;21.20;91.30
38726;DHT22;24474;48.906;8.808;2023-07-20T09:10:07;21.30;91.20
38726;DHT22;24474;48.906;8.808;2023-07-20T09:12:38;21.40;91.20
38726;DHT22;24474;48.906;8.808;2023-07-20T09:15:05;21.40;90.90
38726;DHT22;24474;48.906;8.808;2023-07-20T09:17:31;21.40;90.60
38726;DHT22;24474;48.906;8.808;2023-07-20T09:19:57;21.40;89.50
38726;DHT22;24474;48.906;8.808;2023-07-20T09:22:29;21.30;88.30
38726;DHT22;24474;48.906;8.808;2023-07-20T09:24:56;21.30;88.10
38726;DHT22;24474;48.906;8.808;2023-07-20T09:27:22;21.30;90.20
38726;DHT22;24474;48.906;8.808;2023-07-20T09:29:51;21.30;90.50
38726;DHT22;24474;48.906;8.808;2023-07-20T09:32:21;21.30;91.40
38726;DHT22;24474;48.906;8.808;2023-07-20T09:34:47;21.50;91.20
38726;DHT22;24474;48.906;8.808;2023-07-20T09:37:13;21.50;90.80
38726;DHT22;24474;48.906;8.808;2023-07-20T09:39:45;21.60;91.40
38726;DHT22;24474;48.906;8.808;2023-07-20T09:42:12;21.70;90.40
38726;DHT22;24474;48.906;8.808;2023-07-20T09:44:39;21.70;88.20
38726;DHT22;24474;48.906;8.808;2023-07-20T09:47:05;21.70;87.20
38726;DHT22;24474;48.906;8.808;2023-07-20T09:49:31;21.70;87.90
38726;DHT22;24474;48.906;8.808;2023-07-20T09:52:00;21.60;88.50
38726;DHT22;24474;48.906;8.808;2023-07-20T09:54:28;21.60;89.10
38726;DHT22;24474;48.906;8.808;2023-07-20T09:56:55;21.60;89.80
38726;DHT22;24474;48.906;8.808;2023-07-20T09:59:22;21.70;89.40
38726;DHT22;24474;48.906;8.808;2023-07-20T10:01:48;21.70;90.20
38726;DHT22;24474;48.906;8.808;2023-07-20T10:04:16;21.80;88.30
38726;DHT22;24474;48.906;8.808;2023-07-20T10:06:44;21.90;86.50
38726;DHT22;24474;48.906;8.808;2023-07-20T10:09:15;22.00;89.60
38726;DHT22;24474;48.906;8.808;2023-07-20T10:11:49;22.00;90.00
38726;DHT22;24474;48.906;8.808;2023-07-20T10:14:19;22.00;89.70
38726;DHT22;24474;48.906;8.808;2023-07-20T10:16:54;22.00;85.60
38726;DHT22;24474;48.906;8.808;2023-07-20T10:19:37;22.00;85.20
38726;DHT22;24474;48.906;8.808;2023-07-20T10:22:14;21.90;85.60
38726;DHT22;24474;48.906;8.808;2023-07-20T10:24:44;22.00;85.30
38726;DHT22;24474;48.906;8.808;2023-07-20T10:27:10;22.00;85.20
38726;DHT22;24474;48.906;8.808;2023-07-20T10:29:36;22.00;84.50
38726;DHT22;24474;48.906;8.808;2023-07-20T10:32:03;22.10;87.10
38726;DHT22;24474;48.906;8.808;2023-07-20T10:34:29;22.20;87.10
38726;DHT22;24474;48.906;8.808;2023-07-20T10:36:55;22.10;87.90
38726;DHT22;24474;48.906;8.808;2023-07-20T10:39:32;22.20;87.60
38726;DHT22;24474;48.906;8.808;2023-07-20T10:42:12;22.40;87.50
38726;DHT22;24474;48.906;8.808;2023-07-20T10:44:40;22.50;85.20
38726;DHT22;24474;48.906;8.808;2023-07-20T10:47:10;22.50;83.50
38726;DHT22;24474;48.906;8.808;2023-07-20T10:49:59;22.50;84.60
38726;DHT22;24474;48.906;8.808;2023-07-20T10:52:25;22.60;84.60
38726;DHT22;24474;48.906;8.808;2023-07-20T10:54:51;22.50;83.70
38726;DHT22;24474;48.906;8.808;2023-07-20T10:57:28;22.40;85.90
38726;DHT22;24474;48.906;8.808;2023-07-20T11:00:10;22.40;86.60
38726;DHT22;24474;48.906;8.808;2023-07-20T11:02:47;22.40;87.90
38726;DHT22;24474;48.906;8.808;2023-07-20T11:05:36;22.40;86.20
38726;DHT22;24474;48.906;8.808;2023-07-20T11:08:11;22.50;86.60
38726;DHT22;24474;48.906;8.808;2023-07-20T11:10:37;22.50;85.90
38726;DHT22;24474;48.906;8.808;2023-07-20T11:13:22;22.50;84.50
38726;DHT22;24474;48.906;8.808;2023-07-20T11:16:02;22.60;83.20
38726;DHT22;24474;48.906;8.808;2023-07-20T11:18:29;22.60;86.60
38726;DHT22;24474;48.906;8.808;2023-07-20T11:20:56;22.60;84.80
38726;DHT22;24474;48.906;8.808;2023-07-20T11:23:22;22.70;82.10
38726;DHT22;24474;48.906;8.808;2023-07-20T11:25:49;22.70;81.60
38726;DHT22;24474;48.906;8.808;2023-07-20T11:28:15;22.70;81.10
38726;DHT22;24474;48.906;8.808;2023-07-20T11:30:41;22.60;80.60
38726;DHT22;24474;48.906;8.808;2023-07-20T11:33:10;22.70;80.20
38726;DHT22;24474;48.906;8.808;2023-07-20T11:35:45;22.70;78.70
38726;DHT22;24474;48.906;8.808;2023-07-20T11:38:17;22.70;80.10
38726;DHT22;24474;48.906;8.808;2023-07-20T11:40:44;22.80;81.00
38726;DHT22;24474;48.906;8.808;2023-07-20T11:43:14;22.80;81.40
38726;DHT22;24474;48.906;8.808;2023-07-20T11:45:40;22.80;80.40
38726;DHT22;24474;48.906;8.808;2023-07-20T11:48:06;22.90;78.10
38726;DHT22;24474;48.906;8.808;2023-07-20T11:50:31;23.00;78.40
38726;DHT22;24474;48.906;8.808;2023-07-20T11:52:57;23.10;78.90
38726;DHT22;24474;48.906;8.808;2023-07-20T11:55:23;23.20;80.20
38726;DHT22;24474;48.906;8.808;2023-07-20T11:58:05;23.20;80.10
38726;DHT22;24474;48.906;8.808;2023-07-20T12:00:32;23.20;78.10
38726;DHT22;24474;48.906;8.808;2023-07-20T12:02:58;23.10;79.30
38726;DHT22;24474;48.906;8.808;2023-07-20T12:05:24;22.90;80.00
38726;DHT22;24474;48.906;8.808;2023-07-20T12:07:51;22.90;79.50
38726;DHT22;24474;48.906;8.808;2023-07-20T12:10:24;22.80;79.30
38726;DHT22;24474;48.906;8.808;2023-07-20T12:12:50;22.80;78.40
38726;DHT22;24474;48.906;8.808;2023-07-20T12:17:48;22.90;81.90
38726;DHT22;24474;48.906;8.808;2023-07-20T12:20:28;23.10;81.60
38726;DHT22;24474;48.906;8.808;2023-07-20T12:22:57;23.20;81.50
38726;DHT22;24474;48.906;8.808;2023-07-20T12:25:23;23.30;81.60
38726;DHT22;24474;48.906;8.808;2023-07-20T12:27:49;23.30;82.40
38726;DHT22;24474;48.906;8.808;2023-07-20T12:30:15;23.30;78.70
38726;DHT22;24474;48.906;8.808;2023-07-20T12:32:40;23.30;77.80
38726;DHT22;24474;48.906;8.808;2023-07-20T12:35:06;23.40;78.00
38726;DHT22;24474;48.906;8.808;2023-07-20T12:37:32;23.40;77.90
38726;DHT22;24474;48.906;8.808;2023-07-20T12:39:58;23.50;77.10
38726;DHT22;24474;48.906;8.808;2023-07-20T12:42:23;23.50;78.30
38726;DHT22;24474;48.906;8.808;2023-07-20T12:44:52;23.50;77.20
38726;DHT22;24474;48.906;8.808;2023-07-20T12:47:19;23.50;77.60
38726;DHT22;24474;48.906;8.808;2023-07-20T12:49:47;23.60;77.10
38726;DHT22;24474;48.906;8.808;2023-07-20T12:52:13;23.60;75.50
38726;DHT22;24474;48.906;8.808;2023-07-20T12:54:41;23.60;76.40
38726;DHT22;24474;48.906;8.808;2023-07-20T12:57:07;23.60;76.70
38726;DHT22;24474;48.906;8.808;2023-07-20T12:59:34;23.60;75.70
38726;DHT22;24474;48.906;8.808;2023-07-20T13:02:01;23.60;74.30
38726;DHT22;24474;48.906;8.808;2023-07-20T13:04:27;23.60;75.50
38726;DHT22;24474;48.906;8.808;2023-07-20T13:06:54;23.60;77.80
38726;DHT22;24474;48.906;8.808;2023-07-20T13:09:22;23.60;73.90
38726;DHT22;24474;48.906;8.808;2023-07-20T13:11:50;23.70;73.70
38726;DHT22;24474;48.906;8.808;2023-07-20T13:14:15;23.80;73.50
38726;DHT22;24474;48.906;8.808;2023-07-20T13:16:45;23.80;75.20
38726;DHT22;24474;48.906;8.808;2023-07-20T13:19:12;23.80;71.70
38726;DHT22;24474;48.906;8.808;2023-07-20T13:21:37;24.00;72.20
38726;DHT22;24474;48.906;8.808;2023-07-20T13:24:03;23.90;71.90
38726;DHT22;24474;48.906;8.808;2023-07-20T13:26:29;24.00;71.60
38726;DHT22;24474;48.906;8.808;2023-07-20T13:28:55;24.00;72.00
38726;DHT22;24474;48.906;8.808;2023-07-20T13:31:20;24.00;71.10
38726;DHT22;24474;48.906;8.808;2023-07-20T13:33:47;24.00;72.60
38726;DHT22;24474;48.906;8.808;2023-07-20T13:36:12;23.90;71.70
38726;DHT22;24474;48.906;8.808;2023-07-20T13:38:38;24.00;71.70
38726;DHT22;24474;48.906;8.808;2023-07-20T13:41:04;24.00;71.80
38726;DHT22;24474;48.906;8.808;2023-07-20T13:43:29;24.00;72.30
38726;DHT22;24474;48.906;8.808;2023-07-20T13:45:55;24.00;72.50
38726;DHT22;24474;48.906;8.808;2023-07-20T13:48:21;24.00;71.40
38726;DHT22;24474;48.906;8.808;2023-07-20T13:50:48;24.10;73.20
38726;DHT22;24474;48.906;8.808;2023-07-20T13:53:14;24.10;72.20
38726;DHT22;24474;48.906;8.808;2023-07-20T13:55:41;24.10;69.80
38726;DHT22;24474;48.906;8.808;2023-07-20T13:58:07;24.10;69.50
38726;DHT22;24474;48.906;8.808;2023-07-20T14:00:35;24.20;70.60
38726;DHT22;24474;48.906;8.808;2023-07-20T14:03:01;24.10;71.70
38726;DHT22;24474;48.906;8.808;2023-07-20T14:05:27;24.20;71.80
38726;DHT22;24474;48.906;8.808;2023-07-20T14:07:53;24.30;69.90
38726;DHT22;24474;48.906;8.808;2023-07-20T14:10:19;24.30;69.10
38726;DHT22;24474;48.906;8.808;2023-07-20T14:12:45;24.30;70.20
38726;DHT22;24474;48.906;8.808;2023-07-20T14:15:11;24.30;70.80
38726;DHT22;24474;48.906;8.808;2023-07-20T14:17:36;24.40;69.50
38726;DHT22;24474;48.906;8.808;2023-07-20T14:20:03;24.40;68.80
38726;DHT22;24474;48.906;8.808;2023-07-20T14:22:31;24.40;68.30
38726;DHT22;24474;48.906;8.808;2023-07-20T14:25:00;24.40;68.20
38726;DHT22;24474;48.906;8.808;2023-07-20T14:27:25;24.40;68.00
38726;DHT22;24474;48.906;8.808;2023-07-20T14:29:51;24.40;67.00
38726;DHT22;24474;48.906;8.808;2023-07-20T14:32:18;24.40;66.50
38726;DHT22;24474;48.906;8.808;2023-07-20T14:34:44;24.40;66.80
38726;DHT22;24474;48.906;8.808;2023-07-20T14:37:10;24.40;66.90
38726;DHT22;24474;48.906;8.808;2023-07-20T14:39:35;24.40;68.70
38726;DHT22;24474;48.906;8.808;2023-07-20T14:42:01;24.50;66.10
38726;DHT22;24474;48.906;8.808;2023-07-20T14:44:29;24.50;65.90
38726;DHT22;24474;48.906;8.808;2023-07-20T14:46:55;24.40;66.00
38726;DHT22;24474;48.906;8.808;2023-07-20T14:49:21;24.40;66.50
38726;DHT22;24474;48.906;8.808;2023-07-20T14:51:47;24.50;67.40
38726;DHT22;24474;48.906;8.808;2023-07-20T14:54:13;24.60;66.40
38726;DHT22;24474;48.906;8.808;2023-07-20T14:56:39;24.60;67.40
38726;DHT22;24474;48.906;8.808;2023-07-20T14:59:09;24.70;66.80
38726;DHT22;24474;48.906;8.808;2023-07-20T15:01:35;24.70;67.80
38726;DHT22;24474;48.906;8.808;2023-07-20T15:04:01;24.70;65.70
38726;DHT22;24474;48.906;8.808;2023-07-20T15:06:26;24.80;68.00
38726;DHT22;24474;48.906;8.808;2023-07-20T15:08:55;24.80;66.00
38726;DHT22;24474;48.906;8.808;2023-07-20T15:11:21;24.80;66.00
38726;DHT22;24474;48.906;8.808;2023-07-20T15:13:46;24.80;66.40
38726;DHT22;24474;48.906;8.808;2023-07-20T15:16:12;24.70;64.40
38726;DHT22;24474;48.906;8.808;2023-07-20T15:18:38;24.70;66.20
38726;DHT22;24474;48.906;8.808;2023-07-20T15:21:03;24.70;65.20
38726;DHT22;24474;48.906;8.808;2023-07-20T15:23:29;24.70;66.50
38726;DHT22;24474;48.906;8.808;2023-07-20T15:25:55;24.70;67.20
38726;DHT22;24474;48.906;8.808;2023-07-20T15:28:21;24.70;67.80
38726;DHT22;24474;48.906;8.808;2023-07-20T15:30:47;24.70;66.90
38726;DHT22;24474;48.906;8.808;2023-07-20T15:33:13;24.80;67.30
38726;DHT22;24474;48.906;8.808;2023-07-20T15:35:39;24.80;66.00
38726;DHT22;24474;48.906;8.808;2023-07-20T15:38:05;24.80;66.40
38726;DHT22;24474;48.906;8.808;2023-07-20T15:40:30;24.80;65.40